Time;durP1;ratioP1;P1;durP2;ratioP2;P2;SDS_P1;SDS_P2;PMS_P1;PMS_P2;Temp;Humidity;BMP_temperature;BMP_pressure;BME280_temperature;BME280_humidity;BME280_pressure;Samples;Min_cycle;Max_cycle;Signal;HPM_P1;HPM_P2
2023/09/04 00:00:15;;;;;;;4.85;4.35;;;;;;;;;;5107263;28;20536;-75
2023/09/04 00:02:41;;;;;;;6.47;4.43;;;;;;;;;;5105327;28;20059;-75
2023/09/04 00:05:07;;;;;;;6.30;4.18;;;;;;;;;;5109758;28;20102;-76
2023/09/04 00:07:34;;;;;;;6.90;4.88;;;;;;;;;;5110170;28;20023;-75
2023/09/04 00:10:00;;;;;;;6.47;4.55;;;;;;;;;;5109361;28;20046;-75
2023/09/04 00:12:26;;;;;;;6.10;4.30;;;;;;;;;;5088960;28;20024;-75
2023/09/04 00:14:52;;;;;;;6.47;4.63;;;;;;;;;;5105209;28;20044;-74
2023/09/04 00:17:18;;;;;;;5.93;4.63;;;;;;;;;;5090780;28;20065;-74
2023/09/04 00:19:44;;;;;;;7.13;4.28;;;;;;;;;;5088772;28;20055;-75
2023/09/04 00:22:12;;;;;;;6.57;5.13;;;;;;;;;;5106919;28;20038;-75
2023/09/04 00:24:38;;;;;;;7.30;4.22;;;;;;;;;;5084949;28;20087;-75
2023/09/04 00:27:04;;;;;;;6.10;4.65;;;;;;;;;;5107085;28;20462;-75
2023/09/04 00:29:31;;;;;;;5.95;4.65;;;;;;;;;;5105802;28;20020;-75
2023/09/04 00:31:57;;;;;;;8.15;4.55;;;;;;;;;;5108288;28;20032;-75
2023/09/04 00:34:23;;;;;;;8.20;4.95;;;;;;;;;;5104455;28;20479;-75
2023/09/04 00:36:49;;;;;;;6.32;5.03;;;;;;;;;;5107370;28;20475;-75
2023/09/04 00:39:17;;;;;;;6.65;4.95;;;;;;;;;;5086992;28;20486;-75
2023/09/04 00:41:43;;;;;;;7.13;4.78;;;;;;;;;;5106282;28;20103;-74
2023/09/04 00:44:09;;;;;;;6.38;5.18;;;;;;;;;;5105238;28;20028;-74
2023/09/04 00:46:35;;;;;;;6.53;4.50;;;;;;;;;;5080942;28;20023;-74
2023/09/04 00:49:02;;;;;;;7.32;4.93;;;;;;;;;;5103440;28;20053;-75
2023/09/04 00:51:29;;;;;;;5.55;4.40;;;;;;;;;;5105300;28;20126;-75
2023/09/04 00:53:55;;;;;;;5.95;5.15;;;;;;;;;;5106284;28;20093;-78
2023/09/04 00:56:22;;;;;;;6.40;4.80;;;;;;;;;;5109728;28;20027;-75
2023/09/04 00:58:49;;;;;;;6.28;4.80;;;;;;;;;;5102876;28;20027;-75
2023/09/04 01:01:15;;;;;;;7.28;4.88;;;;;;;;;;5107723;28;20590;-75
2023/09/04 01:03:41;;;;;;;5.40;4.50;;;;;;;;;;5085200;28;20023;-75
2023/09/04 01:06:07;;;;;;;7.25;4.78;;;;;;;;;;5105767;28;20386;-75
2023/09/04 01:08:33;;;;;;;5.53;4.10;;;;;;;;;;5106398;28;20035;-74
2023/09/04 01:11:17;;;;;;;7.07;4.40;;;;;;;;;;5106855;28;20057;-75
2023/09/04 01:14:02;;;;;;;7.00;4.82;;;;;;;;;;5101634;28;20031;-74
2023/09/04 01:16:29;;;;;;;6.88;4.60;;;;;;;;;;5106395;28;20046;-78
2023/09/04 01:18:55;;;;;;;7.30;5.07;;;;;;;;;;5105367;28;20592;-75
2023/09/04 01:21:22;;;;;;;8.82;5.10;;;;;;;;;;5106425;28;20027;-78
2023/09/04 01:23:48;;;;;;;8.00;5.60;;;;;;;;;;5095274;28;20032;-77
2023/09/04 01:26:14;;;;;;;5.93;4.80;;;;;;;;;;5085931;28;20410;-75
2023/09/04 01:28:49;;;;;;;11.93;4.82;;;;;;;;;;5103915;28;20114;-76
2023/09/04 01:31:21;;;;;;;5.80;4.53;;;;;;;;;;5101649;28;20034;-75
2023/09/04 01:33:50;;;;;;;5.85;4.53;;;;;;;;;;5105828;28;20106;-75
2023/09/04 01:36:17;;;;;;;8.10;4.88;;;;;;;;;;5104651;28;21906;-76
2023/09/04 01:38:45;;;;;;;6.95;4.43;;;;;;;;;;5104615;28;20081;-76
2023/09/04 01:41:12;;;;;;;8.52;4.70;;;;;;;;;;5105176;28;20024;-75
2023/09/04 01:43:38;;;;;;;7.78;4.88;;;;;;;;;;5087076;28;20066;-76
2023/09/04 01:46:04;;;;;;;7.05;4.28;;;;;;;;;;5087859;28;20028;-76
2023/09/04 01:48:31;;;;;;;5.80;4.70;;;;;;;;;;5092222;28;20059;-76
2023/09/04 01:50:57;;;;;;;5.68;4.45;;;;;;;;;;5104899;28;20045;-77
2023/09/04 01:53:23;;;;;;;7.65;4.07;;;;;;;;;;5090151;28;20024;-76
2023/09/04 01:55:49;;;;;;;8.13;5.30;;;;;;;;;;5107954;28;20554;-76
2023/09/04 01:58:15;;;;;;;7.07;5.03;;;;;;;;;;5090914;28;20019;-76
2023/09/04 02:00:43;;;;;;;7.20;4.60;;;;;;;;;;5113741;28;20352;-77
2023/09/04 02:03:09;;;;;;;7.85;4.75;;;;;;;;;;5105962;28;20031;-75
2023/09/04 02:05:39;;;;;;;6.95;4.38;;;;;;;;;;5107632;28;21217;-77
2023/09/04 02:08:07;;;;;;;6.35;4.40;;;;;;;;;;5113854;28;20046;-76
2023/09/04 02:10:36;;;;;;;6.88;4.55;;;;;;;;;;5115871;28;20036;-74
2023/09/04 02:13:02;;;;;;;4.63;3.83;;;;;;;;;;5114201;28;20028;-75
2023/09/04 02:15:32;;;;;;;6.57;4.20;;;;;;;;;;5107660;28;20044;-75
2023/09/04 02:18:02;;;;;;;5.35;3.78;;;;;;;;;;5103279;28;20023;-75
2023/09/04 02:20:29;;;;;;;5.25;4.40;;;;;;;;;;5110856;28;20018;-75
2023/09/04 02:22:55;;;;;;;6.53;4.40;;;;;;;;;;5111807;28;20115;-75
2023/09/04 02:25:21;;;;;;;5.30;4.47;;;;;;;;;;5109669;28;20039;-75
2023/09/04 02:27:48;;;;;;;5.53;4.32;;;;;;;;;;5099630;28;20106;-76
2023/09/04 02:30:14;;;;;;;7.10;4.78;;;;;;;;;;5110246;28;20062;-76
2023/09/04 02:32:40;;;;;;;5.70;4.93;;;;;;;;;;5111864;28;20035;-76
2023/09/04 02:35:06;;;;;;;6.47;4.47;;;;;;;;;;5102907;28;20548;-75
2023/09/04 02:37:32;;;;;;;6.25;4.28;;;;;;;;;;5081955;28;20031;-75
2023/09/04 02:39:59;;;;;;;5.55;4.32;;;;;;;;;;5092985;28;20234;-75
2023/09/04 02:42:28;;;;;;;10.27;4.40;;;;;;;;;;5102988;28;20067;-76
2023/09/04 02:44:54;;;;;;;6.30;4.65;;;;;;;;;;5107069;28;20502;-75
2023/09/04 02:47:20;;;;;;;5.45;4.25;;;;;;;;;;5088660;28;20432;-75
2023/09/04 02:49:46;;;;;;;5.70;4.18;;;;;;;;;;5107617;28;20471;-75
2023/09/04 02:52:13;;;;;;;4.57;4.00;;;;;;;;;;5107240;28;20325;-75
2023/09/04 02:54:39;;;;;;;6.82;4.95;;;;;;;;;;5097392;28;20556;-76
2023/09/04 02:57:05;;;;;;;6.85;4.30;;;;;;;;;;5090084;28;20088;-75
2023/09/04 02:59:34;;;;;;;6.60;4.40;;;;;;;;;;5109348;28;20581;-75
2023/09/04 03:02:00;;;;;;;5.53;4.30;;;;;;;;;;5107150;28;20444;-77
2023/09/04 03:04:26;;;;;;;7.70;4.90;;;;;;;;;;5092781;28;20585;-77
2023/09/04 03:06:52;;;;;;;5.60;4.63;;;;;;;;;;5081631;28;20495;-76
2023/09/04 03:09:18;;;;;;;6.38;4.80;;;;;;;;;;5109532;28;20066;-75
2023/09/04 03:11:45;;;;;;;5.78;4.93;;;;;;;;;;5106471;28;20039;-76
2023/09/04 03:14:11;;;;;;;7.13;5.05;;;;;;;;;;5105120;28;20526;-76
2023/09/04 03:16:37;;;;;;;8.05;5.22;;;;;;;;;;5104993;28;20484;-76
2023/09/04 03:19:03;;;;;;;6.90;5.30;;;;;;;;;;5104424;28;20012;-75
2023/09/04 03:21:31;;;;;;;7.70;5.40;;;;;;;;;;5108227;28;20334;-75
2023/09/04 03:23:57;;;;;;;9.73;5.88;;;;;;;;;;5101458;28;20020;-75
2023/09/04 03:26:23;;;;;;;6.55;4.57;;;;;;;;;;5109749;28;20474;-75
2023/09/04 03:28:49;;;;;;;8.05;4.95;;;;;;;;;;5094849;28;20364;-75
2023/09/04 03:31:15;;;;;;;6.13;4.82;;;;;;;;;;5107236;28;20031;-76
2023/09/04 03:33:42;;;;;;;6.15;4.75;;;;;;;;;;5107354;28;20019;-76
2023/09/04 03:36:11;;;;;;;5.15;4.60;;;;;;;;;;5105520;28;20111;-76
2023/09/04 03:38:37;;;;;;;6.53;4.50;;;;;;;;;;5106002;28;20015;-76
2023/09/04 03:41:03;;;;;;;6.70;5.10;;;;;;;;;;5098605;28;20028;-76
2023/09/04 03:43:29;;;;;;;5.75;4.50;;;;;;;;;;5108794;28;20024;-75
2023/09/04 03:45:55;;;;;;;6.32;4.90;;;;;;;;;;5105667;28;20036;-75
2023/09/04 03:48:22;;;;;;;7.60;4.82;;;;;;;;;;5111882;28;20036;-75
2023/09/04 03:50:51;;;;;;;5.15;4.43;;;;;;;;;;5111177;28;20463;-76
2023/09/04 03:53:17;;;;;;;6.50;4.40;;;;;;;;;;5077981;28;20028;-76
2023/09/04 03:55:43;;;;;;;6.75;4.53;;;;;;;;;;5090321;28;20032;-76
2023/09/04 03:58:10;;;;;;;4.85;4.00;;;;;;;;;;5109741;28;20438;-77
2023/09/04 04:00:36;;;;;;;7.30;4.38;;;;;;;;;;5108216;28;20028;-75
2023/09/04 04:03:02;;;;;;;5.85;3.65;;;;;;;;;;5090136;28;20027;-78
2023/09/04 04:05:28;;;;;;;5.43;3.83;;;;;;;;;;5090367;28;20031;-75
2023/09/04 04:07:57;;;;;;;4.38;3.83;;;;;;;;;;5109825;28;20061;-76
2023/09/04 04:10:23;;;;;;;5.15;4.20;;;;;;;;;;5110200;28;20755;-76
2023/09/04 04:12:54;;;;;;;4.63;3.95;;;;;;;;;;5111284;28;20053;-77
2023/09/04 04:15:21;;;;;;;5.03;3.75;;;;;;;;;;5105982;28;20044;-76
2023/09/04 04:17:47;;;;;;;3.92;3.20;;;;;;;;;;5108772;27;20387;-77
2023/09/04 04:20:17;;;;;;;4.53;3.53;;;;;;;;;;5103718;28;20047;-76
2023/09/04 04:22:43;;;;;;;3.42;3.00;;;;;;;;;;5103173;28;20410;-77
2023/09/04 04:25:10;;;;;;;4.65;3.40;;;;;;;;;;5106367;28;20032;-76
2023/09/04 04:27:38;;;;;;;5.63;3.70;;;;;;;;;;5106436;28;20395;-76
2023/09/04 04:30:05;;;;;;;4.10;3.30;;;;;;;;;;5102941;28;20387;-77
2023/09/04 04:32:31;;;;;;;4.80;3.63;;;;;;;;;;5077326;28;20042;-76
2023/09/04 04:34:57;;;;;;;5.72;3.60;;;;;;;;;;5108902;28;20030;-76
2023/09/04 04:37:23;;;;;;;6.70;3.85;;;;;;;;;;5088577;28;20026;-77
2023/09/04 04:39:51;;;;;;;5.97;3.90;;;;;;;;;;5106532;28;20505;-76
2023/09/04 04:42:17;;;;;;;5.00;3.80;;;;;;;;;;5107880;28;20055;-77
2023/09/04 04:44:43;;;;;;;8.38;4.43;;;;;;;;;;5110221;28;20039;-77
2023/09/04 04:47:10;;;;;;;5.20;3.75;;;;;;;;;;5105031;28;20036;-75
2023/09/04 04:49:36;;;;;;;6.25;4.00;;;;;;;;;;5108932;28;20019;-76
2023/09/04 04:52:02;;;;;;;4.88;3.75;;;;;;;;;;5104994;28;20515;-76
2023/09/04 04:54:28;;;;;;;5.30;3.90;;;;;;;;;;5111292;27;20394;-76
2023/09/04 04:56:54;;;;;;;4.47;3.35;;;;;;;;;;5107883;28;20498;-76
2023/09/04 04:59:20;;;;;;;4.95;3.80;;;;;;;;;;5104385;28;20613;-76
2023/09/04 05:01:46;;;;;;;5.82;3.67;;;;;;;;;;5105101;28;20027;-76
2023/09/04 05:04:13;;;;;;;4.47;3.47;;;;;;;;;;5105020;28;20079;-77
2023/09/04 05:06:39;;;;;;;4.63;4.13;;;;;;;;;;5107781;28;20031;-76
2023/09/04 05:09:05;;;;;;;5.07;3.53;;;;;;;;;;5104524;28;20038;-76
2023/09/04 05:11:32;;;;;;;5.03;4.03;;;;;;;;;;5103639;28;20055;-75
2023/09/04 05:13:58;;;;;;;5.43;4.20;;;;;;;;;;5103353;28;20049;-80
2023/09/04 05:16:26;;;;;;;6.00;3.85;;;;;;;;;;5104890;28;20418;-76
2023/09/04 05:18:52;;;;;;;5.53;4.05;;;;;;;;;;5087150;28;20035;-77
2023/09/04 05:21:20;;;;;;;5.07;3.90;;;;;;;;;;5105582;28;20024;-76
2023/09/04 05:23:47;;;;;;;4.78;3.70;;;;;;;;;;5104816;28;20039;-76
2023/09/04 05:26:13;;;;;;;5.82;4.03;;;;;;;;;;5079617;28;20087;-76
2023/09/04 05:28:40;;;;;;;5.22;4.07;;;;;;;;;;5106241;28;20055;-76
2023/09/04 05:31:06;;;;;;;5.65;4.18;;;;;;;;;;5102639;28;20056;-77
2023/09/04 05:33:32;;;;;;;4.30;3.50;;;;;;;;;;5083088;28;20499;-76
2023/09/04 05:35:58;;;;;;;4.45;3.85;;;;;;;;;;5110906;28;20356;-76
2023/09/04 05:38:24;;;;;;;8.95;4.30;;;;;;;;;;5108241;28;20023;-77
2023/09/04 05:40:54;;;;;;;5.50;4.85;;;;;;;;;;5108581;28;20028;-76
2023/09/04 05:43:21;;;;;;;5.53;3.70;;;;;;;;;;5089177;28;20521;-76
2023/09/04 05:45:47;;;;;;;4.72;3.30;;;;;;;;;;5093401;28;20053;-75
2023/09/04 05:48:13;;;;;;;3.53;3.20;;;;;;;;;;5104364;28;20027;-76
2023/09/04 05:50:39;;;;;;;4.38;3.40;;;;;;;;;;5107366;28;20541;-76
2023/09/04 05:53:05;;;;;;;4.32;3.63;;;;;;;;;;5089011;28;20055;-76
2023/09/04 05:55:31;;;;;;;4.72;3.35;;;;;;;;;;5108234;28;20795;-75
2023/09/04 05:57:58;;;;;;;6.10;3.55;;;;;;;;;;5084234;28;20179;-76
2023/09/04 06:00:24;;;;;;;5.68;3.55;;;;;;;;;;5107467;27;20421;-76
2023/09/04 06:02:50;;;;;;;5.88;3.95;;;;;;;;;;5090860;28;20030;-76
2023/09/04 06:05:16;;;;;;;5.22;3.45;;;;;;;;;;5100883;27;20023;-76
2023/09/04 06:07:42;;;;;;;4.18;3.78;;;;;;;;;;5107638;28;20024;-76
2023/09/04 06:10:09;;;;;;;5.43;3.40;;;;;;;;;;5106654;28;20386;-76
2023/09/04 06:12:35;;;;;;;7.65;3.88;;;;;;;;;;5093835;28;20029;-75
2023/09/04 06:15:01;;;;;;;5.68;3.55;;;;;;;;;;5090960;28;20150;-76
2023/09/04 06:17:27;;;;;;;4.47;3.42;;;;;;;;;;5095539;28;20072;-76
2023/09/04 06:19:54;;;;;;;4.15;3.40;;;;;;;;;;5109406;28;20624;-75
2023/09/04 06:22:20;;;;;;;4.90;3.20;;;;;;;;;;5107802;28;20090;-75
2023/09/04 06:24:46;;;;;;;5.88;3.33;;;;;;;;;;5100173;28;20124;-75
2023/09/04 06:27:12;;;;;;;5.45;3.28;;;;;;;;;;5100731;28;20042;-75
2023/09/04 06:29:38;;;;;;;4.85;3.65;;;;;;;;;;5107277;28;20115;-76
2023/09/04 06:32:04;;;;;;;5.97;3.65;;;;;;;;;;5108954;28;20063;-75
2023/09/04 06:34:31;;;;;;;3.88;3.42;;;;;;;;;;5110173;28;20059;-76
2023/09/04 06:36:57;;;;;;;4.53;3.60;;;;;;;;;;5110419;27;20328;-74
2023/09/04 06:39:23;;;;;;;4.90;3.58;;;;;;;;;;5106839;28;20038;-74
2023/09/04 06:41:49;;;;;;;6.72;4.80;;;;;;;;;;5111142;28;20387;-75
2023/09/04 06:44:15;;;;;;;5.85;3.63;;;;;;;;;;5089289;28;21270;-75
2023/09/04 06:46:42;;;;;;;4.68;4.10;;;;;;;;;;5106496;28;20115;-75
2023/09/04 06:49:08;;;;;;;4.38;3.63;;;;;;;;;;5113072;28;20024;-75
2023/09/04 06:51:34;;;;;;;5.60;3.75;;;;;;;;;;5089505;28;20039;-75
2023/09/04 06:54:00;;;;;;;4.80;3.70;;;;;;;;;;5105861;28;20028;-75
2023/09/04 06:56:26;;;;;;;5.93;4.90;;;;;;;;;;5091345;28;20031;-75
2023/09/04 06:58:55;;;;;;;7.78;4.20;;;;;;;;;;5104445;28;20024;-74
2023/09/04 07:01:21;;;;;;;8.23;4.90;;;;;;;;;;5107141;28;20051;-75
2023/09/04 07:03:48;;;;;;;7.25;4.68;;;;;;;;;;5092948;28;20539;-75
2023/09/04 07:06:14;;;;;;;7.55;5.25;;;;;;;;;;5109304;28;20383;-74
2023/09/04 07:08:40;;;;;;;6.88;4.75;;;;;;;;;;5094569;28;20041;-76
2023/09/04 07:11:06;;;;;;;9.13;4.47;;;;;;;;;;5111741;28;20028;-76
2023/09/04 07:13:33;;;;;;;7.82;4.65;;;;;;;;;;5105633;28;20028;-76
2023/09/04 07:15:59;;;;;;;5.80;4.07;;;;;;;;;;5105274;28;20039;-75
2023/09/04 07:18:25;;;;;;;7.47;5.28;;;;;;;;;;5104188;28;20102;-75
2023/09/04 07:20:51;;;;;;;12.38;5.45;;;;;;;;;;5092083;28;20040;-75
2023/09/04 07:23:24;;;;;;;7.18;4.90;;;;;;;;;;5099575;28;20023;-76
2023/09/04 07:25:54;;;;;;;5.47;4.18;;;;;;;;;;5093082;28;20055;-76
2023/09/04 07:28:21;;;;;;;5.50;4.10;;;;;;;;;;5103670;28;20084;-76
2023/09/04 07:30:47;;;;;;;6.68;4.03;;;;;;;;;;5102221;28;20407;-75
2023/09/04 07:33:13;;;;;;;5.38;4.50;;;;;;;;;;5106292;28;20488;-75
2023/09/04 07:35:40;;;;;;;7.05;4.47;;;;;;;;;;5103519;28;20517;-75
2023/09/04 07:38:06;;;;;;;6.63;4.75;;;;;;;;;;5095531;28;20958;-75
2023/09/04 07:40:34;;;;;;;7.28;4.97;;;;;;;;;;5101832;28;20031;-75
2023/09/04 07:43:01;;;;;;;7.55;4.60;;;;;;;;;;5092795;28;20750;-78
2023/09/04 07:45:27;;;;;;;5.90;4.82;;;;;;;;;;5102362;28;20490;-80
2023/09/04 07:47:54;;;;;;;8.10;5.10;;;;;;;;;;5102483;28;20054;-74
2023/09/04 07:50:20;;;;;;;6.57;4.93;;;;;;;;;;5094876;28;20019;-74
2023/09/04 07:52:47;;;;;;;8.18;4.57;;;;;;;;;;5099044;28;20036;-76
2023/09/04 07:55:13;;;;;;;8.45;5.32;;;;;;;;;;5097300;28;20154;-76
2023/09/04 07:57:40;;;;;;;7.80;5.80;;;;;;;;;;5101263;28;20032;-76
2023/09/04 08:00:06;;;;;;;8.98;5.60;;;;;;;;;;5102323;28;20051;-75
2023/09/04 08:02:32;;;;;;;7.03;5.43;;;;;;;;;;5102010;28;20457;-74
2023/09/04 08:05:00;;;;;;;7.90;4.78;;;;;;;;;;5102284;28;20100;-75
2023/09/04 08:07:26;;;;;;;6.90;5.32;;;;;;;;;;5083586;28;20031;-75
2023/09/04 08:09:52;;;;;;;6.18;4.55;;;;;;;;;;5106228;28;20418;-76
2023/09/04 08:12:19;;;;;;;5.38;3.92;;;;;;;;;;5103349;28;20027;-78
2023/09/04 08:14:47;;;;;;;5.57;4.55;;;;;;;;;;5101672;28;20505;-75
2023/09/04 08:17:13;;;;;;;8.43;4.35;;;;;;;;;;5098341;28;20453;-76
2023/09/04 08:19:40;;;;;;;7.88;4.63;;;;;;;;;;5096559;28;20027;-77
2023/09/04 08:22:06;;;;;;;7.80;5.15;;;;;;;;;;5083367;28;20356;-76
2023/09/04 08:24:34;;;;;;;7.00;4.78;;;;;;;;;;5096629;28;20038;-76
2023/09/04 08:27:00;;;;;;;6.50;5.13;;;;;;;;;;5102390;28;20062;-76
2023/09/04 08:29:27;;;;;;;8.07;5.40;;;;;;;;;;5100918;28;20646;-76
2023/09/04 08:31:53;;;;;;;9.73;5.78;;;;;;;;;;5082450;28;20031;-76
2023/09/04 08:34:20;;;;;;;7.72;5.03;;;;;;;;;;5102045;28;20424;-76
2023/09/04 08:36:46;;;;;;;7.45;5.30;;;;;;;;;;5102948;28;20104;-77
2023/09/04 08:39:12;;;;;;;6.97;4.97;;;;;;;;;;5078893;28;20539;-76
2023/09/04 08:41:38;;;;;;;6.10;4.38;;;;;;;;;;5100428;28;20037;-76
2023/09/04 08:44:05;;;;;;;6.95;4.88;;;;;;;;;;5104282;28;20482;-76
2023/09/04 08:46:32;;;;;;;11.48;6.20;;;;;;;;;;5104609;28;20034;-76
2023/09/04 08:49:01;;;;;;;8.27;4.68;;;;;;;;;;5081331;28;20534;-76
2023/09/04 08:51:27;;;;;;;8.43;4.78;;;;;;;;;;5091738;28;20023;-76
2023/09/04 08:53:55;;;;;;;9.80;5.95;;;;;;;;;;5093402;28;20091;-76
2023/09/04 08:56:22;;;;;;;7.53;4.80;;;;;;;;;;5100791;28;20487;-76
2023/09/04 08:58:48;;;;;;;5.93;4.75;;;;;;;;;;5098678;28;20107;-75
2023/09/04 09:01:16;;;;;;;7.00;5.22;;;;;;;;;;5104938;28;20034;-75
2023/09/04 09:03:43;;;;;;;7.07;4.82;;;;;;;;;;5083064;28;20064;-76
2023/09/04 09:06:09;;;;;;;6.03;4.32;;;;;;;;;;5100108;28;20020;-75
2023/09/04 09:08:36;;;;;;;5.78;4.38;;;;;;;;;;5106803;28;20050;-75
2023/09/04 09:11:03;;;;;;;7.05;4.15;;;;;;;;;;5103256;28;20052;-75
2023/09/04 09:13:29;;;;;;;9.27;4.55;;;;;;;;;;5085670;28;20046;-75
2023/09/04 09:15:55;;;;;;;7.63;4.15;;;;;;;;;;5103446;28;20446;-75
2023/09/04 09:18:36;;;;;;;6.78;4.53;;;;;;;;;;5103360;28;20577;-76
2023/09/04 09:21:02;;;;;;;6.97;4.53;;;;;;;;;;5099318;28;20031;-75
2023/09/04 09:23:29;;;;;;;5.45;3.90;;;;;;;;;;5097965;28;20032;-77
2023/09/04 09:25:55;;;;;;;5.85;3.42;;;;;;;;;;5095413;28;20656;-76
2023/09/04 09:28:21;;;;;;;6.70;4.00;;;;;;;;;;5100673;28;20094;-76
2023/09/04 09:30:48;;;;;;;5.18;4.00;;;;;;;;;;5079648;28;20503;-78
2023/09/04 09:33:19;;;;;;;4.32;3.50;;;;;;;;;;5087568;28;20043;-73
2023/09/04 09:35:45;;;;;;;4.45;3.55;;;;;;;;;;5077534;28;20031;-72
2023/09/04 09:38:11;;;;;;;7.15;4.15;;;;;;;;;;5092578;28;20024;-73
2023/09/04 09:40:38;;;;;;;6.35;4.13;;;;;;;;;;5101253;28;20027;-73
2023/09/04 09:43:04;;;;;;;6.65;4.00;;;;;;;;;;5078767;28;20028;-72
2023/09/04 09:45:33;;;;;;;6.00;3.67;;;;;;;;;;5097581;28;20020;-73
2023/09/04 09:48:05;;;;;;;5.47;4.07;;;;;;;;;;5098429;28;20542;-73
2023/09/04 09:50:31;;;;;;;6.50;3.83;;;;;;;;;;5100994;28;20757;-73
2023/09/04 09:53:00;;;;;;;5.03;3.83;;;;;;;;;;5096495;28;20146;-73
2023/09/04 09:55:27;;;;;;;6.07;4.22;;;;;;;;;;5097022;28;20027;-71
2023/09/04 09:57:54;;;;;;;7.57;3.67;;;;;;;;;;5096915;28;20507;-74
2023/09/04 10:00:20;;;;;;;6.68;3.58;;;;;;;;;;5095977;28;20106;-73
2023/09/04 10:02:57;;;;;;;4.80;3.92;;;;;;;;;;5096098;28;20042;-74
2023/09/04 10:05:24;;;;;;;10.38;5.25;;;;;;;;;;5097132;28;20484;-74
2023/09/04 10:07:52;;;;;;;6.43;4.72;;;;;;;;;;5090664;28;20035;-74
2023/09/04 10:10:18;;;;;;;6.07;4.03;;;;;;;;;;5079640;28;20035;-74
2023/09/04 10:12:44;;;;;;;15.38;6.07;;;;;;;;;;5096167;28;20138;-74
2023/09/04 10:15:12;;;;;;;7.55;4.32;;;;;;;;;;5085962;28;20070;-76
2023/09/04 10:17:49;;;;;;;3.97;3.22;;;;;;;;;;5094827;28;20717;-74
2023/09/04 10:20:15;;;;;;;6.60;3.53;;;;;;;;;;5094279;28;20020;-75
2023/09/04 10:22:47;;;;;;;3.80;3.40;;;;;;;;;;5101520;28;20146;-75
2023/09/04 10:25:23;;;;;;;5.70;3.42;;;;;;;;;;5098048;28;20027;-77
2023/09/04 10:27:50;;;;;;;4.43;3.20;;;;;;;;;;5078613;28;20502;-76
2023/09/04 10:30:22;;;;;;;3.50;3.13;;;;;;;;;;5101622;28;20034;-77
2023/09/04 10:32:49;;;;;;;4.47;3.20;;;;;;;;;;5101143;28;20032;-77
2023/09/04 10:35:15;;;;;;;4.97;3.05;;;;;;;;;;5104619;28;20027;-76
2023/09/04 10:37:43;;;;;;;5.90;3.10;;;;;;;;;;5102681;28;20028;-77
2023/09/04 10:40:12;;;;;;;3.33;2.90;;;;;;;;;;5096171;28;20031;-76
2023/09/04 10:42:41;;;;;;;8.35;3.70;;;;;;;;;;5097709;28;20046;-74
2023/09/04 10:45:20;;;;;;;3.95;3.08;;;;;;;;;;5095934;28;20023;-75
2023/09/04 10:47:50;;;;;;;5.82;3.35;;;;;;;;;;5076242;28;21001;-75
2023/09/04 10:50:37;;;;;;;4.05;2.85;;;;;;;;;;5101806;28;20088;-77
2023/09/04 10:53:07;;;;;;;5.75;3.13;;;;;;;;;;5102839;28;20036;-76
2023/09/04 10:55:35;;;;;;;3.63;3.00;;;;;;;;;;5102356;28;20503;-75
2023/09/04 10:58:03;;;;;;;3.33;2.70;;;;;;;;;;5105618;28;20038;-75
2023/09/04 11:00:41;;;;;;;3.50;2.78;;;;;;;;;;5081817;28;20380;-72
2023/09/04 11:03:16;;;;;;;5.28;3.13;;;;;;;;;;5100103;28;20035;-70
2023/09/04 11:06:01;;;;;;;3.25;2.70;;;;;;;;;;5081750;28;20089;-77
2023/09/04 11:08:27;;;;;;;3.53;2.70;;;;;;;;;;5102117;28;20627;-78
2023/09/04 11:11:01;;;;;;;3.08;2.70;;;;;;;;;;5106149;28;20035;-77
2023/09/04 11:13:27;;;;;;;6.90;3.10;;;;;;;;;;5085704;28;20020;-78
2023/09/04 11:16:03;;;;;;;3.25;2.85;;;;;;;;;;5109297;28;20285;-77
2023/09/04 11:18:30;;;;;;;5.70;3.40;;;;;;;;;;5085384;28;20470;-77
2023/09/04 11:20:56;;;;;;;5.25;3.20;;;;;;;;;;5103975;28;20565;-77
2023/09/04 11:23:26;;;;;;;9.35;3.28;;;;;;;;;;5105393;28;20038;-77
2023/09/04 11:25:52;;;;;;;3.50;2.85;;;;;;;;;;5103892;28;20059;-78
2023/09/04 11:28:28;;;;;;;7.35;3.35;;;;;;;;;;5105778;28;20027;-77
2023/09/04 11:30:57;;;;;;;4.85;4.00;;;;;;;;;;5103420;28;20023;-75
2023/09/04 11:33:24;;;;;;;3.85;3.17;;;;;;;;;;5103997;28;20024;-77
2023/09/04 11:36:03;;;;;;;4.25;3.47;;;;;;;;;;5108137;28;20020;-78
2023/09/04 11:38:30;;;;;;;3.65;3.00;;;;;;;;;;5100848;28;20503;-76
2023/09/04 11:40:57;;;;;;;4.15;3.50;;;;;;;;;;5099425;28;20028;-76
2023/09/04 11:43:23;;;;;;;4.38;3.28;;;;;;;;;;5102355;28;20031;-76
2023/09/04 11:45:56;;;;;;;3.67;3.00;;;;;;;;;;5103747;28;20066;-76
2023/09/04 11:48:26;;;;;;;5.05;3.28;;;;;;;;;;5104182;28;20114;-75
2023/09/04 11:50:53;;;;;;;5.47;3.40;;;;;;;;;;5103633;28;20258;-74
2023/09/04 11:53:19;;;;;;;4.30;3.30;;;;;;;;;;5104550;28;20542;-78
2023/09/04 11:55:51;;;;;;;4.57;3.88;;;;;;;;;;5088812;28;20027;-76
2023/09/04 11:58:18;;;;;;;3.85;3.17;;;;;;;;;;5104698;28;20433;-75
2023/09/04 12:00:44;;;;;;;3.72;3.35;;;;;;;;;;5104294;28;20370;-76
2023/09/04 12:03:10;;;;;;;4.70;3.47;;;;;;;;;;5085892;28;20453;-76
2023/09/04 12:05:37;;;;;;;8.27;4.18;;;;;;;;;;5102233;28;20038;-78
2023/09/04 12:08:06;;;;;;;4.43;3.72;;;;;;;;;;5096943;28;20522;-75
2023/09/04 12:10:33;;;;;;;3.78;3.28;;;;;;;;;;5085119;28;20399;-75
2023/09/04 12:12:59;;;;;;;4.20;3.72;;;;;;;;;;5105592;28;20031;-75
2023/09/04 12:15:38;;;;;;;9.95;3.60;;;;;;;;;;5100072;28;20060;-76
2023/09/04 12:18:05;;;;;;;3.70;3.40;;;;;;;;;;5101407;28;20104;-77
2023/09/04 12:20:35;;;;;;;5.65;3.30;;;;;;;;;;5088650;28;20042;-73
2023/09/04 12:23:02;;;;;;;3.88;3.50;;;;;;;;;;5093367;28;20079;-74
2023/09/04 12:25:38;;;;;;;5.47;3.90;;;;;;;;;;5101632;28;20032;-75
2023/09/04 12:28:14;;;;;;;3.53;3.22;;;;;;;;;;5087091;28;20032;-76
2023/09/04 12:30:50;;;;;;;5.40;3.38;;;;;;;;;;5102590;28;20054;-73
2023/09/04 12:33:20;;;;;;;3.72;3.42;;;;;;;;;;5098453;28;20024;-74
2023/09/04 12:35:57;;;;;;;4.28;3.47;;;;;;;;;;5082862;28;20034;-73
2023/09/04 12:38:23;;;;;;;4.85;3.28;;;;;;;;;;5098310;28;20707;-72
2023/09/04 12:40:50;;;;;;;4.18;3.28;;;;;;;;;;5099929;28;20019;-74
2023/09/04 12:43:18;;;;;;;4.40;3.45;;;;;;;;;;5099584;28;20107;-74
2023/09/04 12:45:44;;;;;;;6.45;3.70;;;;;;;;;;5103507;28;20444;-75
2023/09/04 12:48:17;;;;;;;4.00;3.60;;;;;;;;;;5100562;28;20057;-76
2023/09/04 12:50:48;;;;;;;4.38;3.20;;;;;;;;;;5100188;28;20035;-75
2023/09/04 12:53:14;;;;;;;5.28;3.45;;;;;;;;;;5105274;28;20081;-75
2023/09/04 12:55:40;;;;;;;4.55;3.35;;;;;;;;;;5104097;28;20579;-76
2023/09/04 12:58:07;;;;;;;5.65;3.90;;;;;;;;;;5087260;28;20433;-76
2023/09/04 13:00:34;;;;;;;7.10;3.60;;;;;;;;;;5103511;28;20451;-75
2023/09/04 13:03:00;;;;;;;4.82;3.20;;;;;;;;;;5104420;28;20038;-75
2023/09/04 13:05:27;;;;;;;4.00;3.53;;;;;;;;;;5098110;28;20027;-71
2023/09/04 13:07:53;;;;;;;4.55;3.25;;;;;;;;;;5100159;28;20217;-73
2023/09/04 13:10:19;;;;;;;5.53;3.67;;;;;;;;;;5084283;28;20032;-74
2023/09/04 13:12:45;;;;;;;4.57;3.20;;;;;;;;;;5079956;28;20035;-74
2023/09/04 13:15:12;;;;;;;4.53;3.25;;;;;;;;;;5078599;28;20043;-73
2023/09/04 13:17:41;;;;;;;3.22;2.90;;;;;;;;;;5082931;28;20019;-72
2023/09/04 13:20:08;;;;;;;4.88;3.40;;;;;;;;;;5079281;28;20059;-73
2023/09/04 13:22:34;;;;;;;5.20;3.25;;;;;;;;;;5081994;28;20078;-73
2023/09/04 13:25:00;;;;;;;4.18;3.38;;;;;;;;;;5093396;28;20140;-73
2023/09/04 13:27:26;;;;;;;4.63;3.50;;;;;;;;;;5082908;28;20051;-72
2023/09/04 13:29:52;;;;;;;5.43;3.03;;;;;;;;;;5100606;28;20028;-71
2023/09/04 13:32:19;;;;;;;4.38;2.97;;;;;;;;;;5098944;28;20039;-71
2023/09/04 13:34:45;;;;;;;4.03;3.13;;;;;;;;;;5091706;28;20058;-71
2023/09/04 13:37:11;;;;;;;5.18;3.33;;;;;;;;;;5095497;28;20020;-71
2023/09/04 13:39:38;;;;;;;3.53;3.00;;;;;;;;;;5104593;28;20547;-71
2023/09/04 13:42:05;;;;;;;5.97;2.92;;;;;;;;;;5103506;28;20080;-71
2023/09/04 13:44:31;;;;;;;4.53;3.30;;;;;;;;;;5106143;28;20032;-71
2023/09/04 13:46:57;;;;;;;3.92;3.28;;;;;;;;;;5099778;28;20426;-72
2023/09/04 13:49:24;;;;;;;6.15;3.50;;;;;;;;;;5097325;28;20085;-71
2023/09/04 13:51:50;;;;;;;3.38;2.90;;;;;;;;;;5105351;28;20024;-72
2023/09/04 13:54:16;;;;;;;6.07;2.67;;;;;;;;;;5107742;28;20067;-72
2023/09/04 13:56:42;;;;;;;3.88;2.90;;;;;;;;;;5109481;28;20023;-72
2023/09/04 13:59:09;;;;;;;4.22;3.13;;;;;;;;;;5109650;28;20030;-73
2023/09/04 14:01:35;;;;;;;3.30;3.00;;;;;;;;;;5105900;28;20024;-71
2023/09/04 14:04:03;;;;;;;5.47;3.00;;;;;;;;;;5107741;28;20091;-72
2023/09/04 14:06:30;;;;;;;5.25;3.20;;;;;;;;;;5103313;28;20100;-72
2023/09/04 14:08:56;;;;;;;4.43;2.83;;;;;;;;;;5108501;28;20329;-72
2023/09/04 14:11:22;;;;;;;3.20;2.88;;;;;;;;;;5109301;28;20020;-72
2023/09/04 14:13:51;;;;;;;3.80;2.72;;;;;;;;;;5103055;28;20031;-73
2023/09/04 14:16:17;;;;;;;4.25;3.03;;;;;;;;;;5106708;28;20533;-72
2023/09/04 14:18:43;;;;;;;3.45;2.90;;;;;;;;;;5105227;28;20391;-72
2023/09/04 14:21:10;;;;;;;4.47;2.92;;;;;;;;;;5108453;28;20031;-72
2023/09/04 14:23:36;;;;;;;3.05;2.70;;;;;;;;;;5106627;28;20055;-72
2023/09/04 14:26:05;;;;;;;4.97;2.80;;;;;;;;;;5103376;28;20368;-71
2023/09/04 14:28:31;;;;;;;3.50;2.80;;;;;;;;;;5104625;28;20020;-72
2023/09/04 14:30:57;;;;;;;5.68;3.33;;;;;;;;;;5100956;28;20027;-73
2023/09/04 14:33:23;;;;;;;4.97;2.90;;;;;;;;;;5091503;28;20023;-73
2023/09/04 14:35:57;;;;;;;4.43;2.88;;;;;;;;;;5101876;28;20046;-72
2023/09/04 14:38:23;;;;;;;3.35;2.97;;;;;;;;;;5107660;28;20110;-72
2023/09/04 14:40:49;;;;;;;3.80;2.70;;;;;;;;;;5108103;28;20031;-72
2023/09/04 14:43:15;;;;;;;3.85;3.03;;;;;;;;;;5102117;28;20047;-73